Airfield :
LOGIN :

Register | Disclaimer

   EN    FR    IT 

 










Legend :    VFR   Marginal VFR   IFR   Intensive IFR   Very Intensive IFR
Visi :
Ceiling :
>= 8 km
>= 3000ft
5 to 8 km
1000 to 3000 ft
1500m to 5 km
500 to 1000 ft
800 to 1500m
200 to 500 ft
< 800m
< 200 ft
Symbols :   Thunderstorms  Fog  Heavy snow  Heavy precipitations  Wind > 20 kt
SIGMETs :     Misc.  Thunderstorms  Icing  Turbulence  Mountain Waves  Volcanic Ashes






- Airport Elevation : 659 ft
- IATA code : LYN


LFLY - Lyon Bron

CURRENT METAR :
  • 301230Z AUTO 34007KT 9999 SCT019 OVC029 09/06 Q1018 NOSIG

EXPIRED METARs :
  • 301200Z AUTO 35009KT 9999 OVC026 09/06 Q1018 NOSIG
  • 301130Z AUTO 35010KT 9999 BKN019 OVC026 09/05 Q1018 NOSIG
  • 301100Z AUTO 34010KT 9999 OVC019 09/06 Q1018 NOSIG
  • 301030Z AUTO 34010KT 9999 BKN019 OVC052 09/05 Q1018 NOSIG
  • 301000Z AUTO 35009KT 9999 OVC017 08/06 Q1019 NOSIG

TAF TAF LFLY
Valid from the 30 at 12:00 until the 01 at 12:00 UTC


301100Z 3012/0112 34010KT 9999 BKN020
PROB30
TEMPO 0101/0108 OVC013
ATIS : +33 4 72 15 87 96



MET'MAP, your aeronautical weather chart ! - Copyright ORBIFLY December 2007 - Disclaimer

ORBIFLY MET'MAP TEAM :

Programming & Development : Alexandra Zaïnal
Original concept : Baudouin d'Aumeries
Technical & hardware support : Manuel Goepfert
Assistance : Marc-Olivier Méhu




SOURCES & CREDITS :

   NOAA